createdAt,value
2022-09-05T00:00:05.724Z,40.65
2022-09-05T00:00:36.973Z,40.53
2022-09-05T00:01:05.141Z,40.51
2022-09-05T00:01:34.772Z,40.79
2022-09-05T00:02:27.123Z,40.24
2022-09-05T00:02:59.500Z,40.18
2022-09-05T00:03:30.351Z,40.13
2022-09-05T00:04:10.549Z,40.42
2022-09-05T00:04:54.505Z,40.87
2022-09-05T00:05:35.127Z,40.88
2022-09-05T00:06:06.877Z,40.87
2022-09-05T00:06:37.226Z,41.09
2022-09-05T00:07:06.888Z,40.62
2022-09-05T00:07:58.809Z,40.51
2022-09-05T00:08:28.118Z,41.04
2022-09-05T00:08:59.813Z,40.77
2022-09-05T00:09:30.833Z,40.95
2022-09-05T00:10:08.946Z,41.17
2022-09-05T00:10:46.610Z,40.87
2022-09-05T00:11:41.707Z,40.44
2022-09-05T00:12:08.418Z,40.74
2022-09-05T00:12:32.797Z,40.60
2022-09-05T00:13:07.748Z,40.35
2022-09-05T00:13:35.502Z,40.52
2022-09-05T00:15:14.502Z,40.18
2022-09-05T00:15:20.435Z,39.76
2022-09-05T00:15:55.810Z,40.19
2022-09-05T00:16:45.539Z,40.65
2022-09-05T00:17:15.483Z,40.46
2022-09-05T00:20:16.837Z,40.54
2022-09-05T00:23:29.043Z,40.24
2022-09-05T00:24:20.309Z,40.05
2022-09-05T00:24:21.084Z,40.16
2022-09-05T00:24:23.409Z,40.18
2022-09-05T00:24:28.565Z,40.22
2022-09-05T00:24:32.907Z,40.16
2022-09-05T00:24:33.159Z,41.38
2022-09-05T00:26:03.008Z,39.83
2022-09-05T00:26:36.085Z,40.22
2022-09-05T00:27:05.894Z,41.36
2022-09-05T00:27:38.409Z,40.46
2022-09-05T00:28:26.778Z,40.41
2022-09-05T00:28:57.457Z,40.67
2022-09-05T00:29:42.070Z,40.76
2022-09-05T00:31:29.070Z,40.58
2022-09-05T00:31:51.071Z,40.78
2022-09-05T00:32:19.225Z,40.41
2022-09-05T00:33:17.452Z,40.36
2022-09-05T00:33:52.721Z,41.00
2022-09-05T00:34:26.960Z,40.50
2022-09-05T00:35:15.131Z,40.35
2022-09-05T00:35:49.328Z,40.01
2022-09-05T00:36:25.718Z,40.46
2022-09-05T00:36:49.849Z,40.43
2022-09-05T00:37:12.411Z,40.33
2022-09-05T00:37:42.627Z,40.01
2022-09-05T00:38:13.164Z,40.07
2022-09-05T00:38:37.318Z,40.22
2022-09-05T00:39:04.429Z,40.25
2022-09-05T00:39:30.401Z,40.17
2022-09-05T00:40:16.120Z,40.19
2022-09-05T00:40:40.267Z,39.95
2022-09-05T00:41:05.788Z,39.90
2022-09-05T00:41:28.716Z,40.43
2022-09-05T00:41:58.992Z,40.17
2022-09-05T00:42:23.301Z,40.20
2022-09-05T00:42:48.728Z,40.03
2022-09-05T00:43:16.517Z,40.23
2022-09-05T00:43:41.979Z,40.36
2022-09-05T00:44:05.332Z,40.25
2022-09-05T00:44:31.538Z,40.13
2022-09-05T00:44:57.139Z,40.01
2022-09-05T00:45:28.336Z,40.15
2022-09-05T00:45:58.517Z,39.96
2022-09-05T00:46:25.118Z,40.16
2022-09-05T00:46:53.312Z,40.22
2022-09-05T00:47:27.531Z,40.01
2022-09-05T00:47:56.447Z,40.14
2022-09-05T00:48:28.771Z,40.20
2022-09-05T00:48:58.317Z,40.16
2022-09-05T00:49:28.565Z,40.14
2022-09-05T00:49:54.374Z,40.11
2022-09-05T00:50:22.381Z,40.29
2022-09-05T00:50:57.865Z,40.03
2022-09-05T00:51:34.825Z,40.37
2022-09-05T00:52:03.604Z,40.55
2022-09-05T00:52:34.641Z,40.43
2022-09-05T00:53:07.575Z,40.37
2022-09-05T00:53:38.884Z,40.33
2022-09-05T00:54:32.675Z,40.07
2022-09-05T00:55:17.734Z,40.59
2022-09-05T00:55:48.869Z,40.68
2022-09-05T00:56:30.649Z,40.56
2022-09-05T00:57:08.907Z,41.02
2022-09-05T00:57:54.851Z,40.72
2022-09-05T00:58:40.205Z,40.63
2022-09-05T00:59:24.671Z,40.81
2022-09-05T01:00:17.091Z,40.97
2022-09-05T01:00:52.548Z,41.60
2022-09-05T01:01:27.631Z,41.47
2022-09-05T01:01:56.005Z,41.85
2022-09-05T01:02:32.097Z,42.09
2022-09-05T01:03:09.835Z,41.79
2022-09-05T01:03:52.582Z,42.17
2022-09-05T01:04:30.082Z,42.04
2022-09-05T01:04:57.800Z,42.38
2022-09-05T01:05:35.666Z,42.14
2022-09-05T01:06:18.715Z,41.83
2022-09-05T01:06:56.513Z,41.81
2022-09-05T01:07:46.842Z,41.79
2022-09-05T01:08:23.635Z,41.62
2022-09-05T01:09:07.988Z,42.08
2022-09-05T01:09:46.569Z,41.52
2022-09-05T01:10:23.600Z,40.89
2022-09-05T01:10:53.822Z,41.13
2022-09-05T01:11:32.493Z,41.13
2022-09-05T01:12:10.762Z,40.78
2022-09-05T01:12:52.617Z,40.96
2022-09-05T01:13:22.889Z,41.58
2022-09-05T01:13:52.241Z,41.75
2022-09-05T01:14:28.188Z,41.81
2022-09-05T01:15:11.727Z,42.03
2022-09-05T01:15:43.559Z,41.96
2022-09-05T01:16:12.419Z,41.81
2022-09-05T01:16:57.008Z,41.90
2022-09-05T01:17:31.340Z,42.11
2022-09-05T01:18:09.716Z,42.20
2022-09-05T01:18:50.661Z,42.42
2022-09-05T01:19:26.540Z,42.10
2022-09-05T01:20:19.591Z,42.59
2022-09-05T01:21:09.022Z,42.53
2022-09-05T01:21:58.106Z,41.75
2022-09-05T01:22:45.968Z,41.59
2022-09-05T01:23:29.787Z,41.82
2022-09-05T01:24:11.173Z,41.07
2022-09-05T01:24:46.524Z,41.29
2022-09-05T01:25:27.141Z,41.01
2022-09-05T01:26:05.953Z,41.36
2022-09-05T01:26:46.135Z,41.48
2022-09-05T01:28:11.306Z,42.12
2022-09-05T01:29:16.758Z,41.76
2022-09-05T01:29:19.684Z,42.55
2022-09-05T01:29:50.928Z,42.74
2022-09-05T01:30:16.073Z,42.44
2022-09-05T01:30:42.693Z,42.22
2022-09-05T01:31:12.196Z,41.90
2022-09-05T01:31:43.019Z,42.00
2022-09-05T01:32:30.087Z,41.15
2022-09-05T01:33:02.789Z,41.26
2022-09-05T01:33:43.173Z,40.67
2022-09-05T01:34:12.976Z,40.96
2022-09-05T01:34:46.993Z,41.23
2022-09-05T01:35:36.240Z,41.48
2022-09-05T01:36:39.718Z,41.09
2022-09-05T01:37:24.759Z,41.23
2022-09-05T01:38:06.699Z,42.04
2022-09-05T01:38:38.155Z,41.87
2022-09-05T01:40:11.499Z,42.23
2022-09-05T01:40:11.851Z,41.94
2022-09-05T01:40:51.635Z,41.97
2022-09-05T01:41:39.268Z,41.62
2022-09-05T01:42:08.565Z,41.69
2022-09-05T01:42:41.707Z,42.08
2022-09-05T01:43:16.829Z,42.23
2022-09-05T01:44:01.890Z,42.51
2022-09-05T01:44:36.721Z,42.29
2022-09-05T01:45:03.291Z,41.82
2022-09-05T01:45:39.861Z,42.44
2022-09-05T01:46:20.260Z,41.91
2022-09-05T01:46:50.566Z,41.52
2022-09-05T01:47:38.123Z,41.71
2022-09-05T01:48:06.633Z,41.39
2022-09-05T01:48:37.359Z,41.48
2022-09-05T01:49:08.789Z,41.46
2022-09-05T01:49:50.017Z,41.22
2022-09-05T01:50:27.252Z,41.36
2022-09-05T01:51:03.373Z,41.58
2022-09-05T01:51:36.453Z,42.04
2022-09-05T01:52:18.940Z,41.45
2022-09-05T01:53:05.102Z,40.85
2022-09-05T01:53:39.842Z,41.07
2022-09-05T01:54:24.329Z,41.41
2022-09-05T01:55:03.829Z,41.65
2022-09-05T01:56:03.969Z,41.52
2022-09-05T01:56:38.126Z,41.52
2022-09-05T01:57:12.293Z,41.34
2022-09-05T01:57:47.401Z,41.53
2022-09-05T01:58:16.963Z,41.20
2022-09-05T01:58:55.792Z,41.47
2022-09-05T01:59:28.317Z,41.47
2022-09-05T01:59:59.306Z,41.31
2022-09-05T02:00:23.569Z,41.56
2022-09-05T02:00:56.524Z,41.20
2022-09-05T02:01:57.249Z,41.20
2022-09-05T02:02:31.394Z,41.11
2022-09-05T02:03:04.108Z,41.24
2022-09-05T02:03:37.156Z,41.48
2022-09-05T02:04:14.090Z,41.52
2022-09-05T02:04:55.259Z,41.53
2022-09-05T02:05:48.846Z,42.23
2022-09-05T02:06:33.868Z,42.66
2022-09-05T02:07:19.234Z,42.83
2022-09-05T02:08:07.387Z,42.31
2022-09-05T02:08:54.097Z,41.91
2022-09-05T02:09:32.825Z,42.37
2022-09-05T02:10:35.636Z,42.38
2022-09-05T02:11:06.145Z,42.43
2022-09-05T02:11:46.923Z,43.02
2022-09-05T02:12:21.884Z,42.91
2022-09-05T02:13:01.869Z,42.16
2022-09-05T02:13:40.204Z,42.38
2022-09-05T02:14:09.144Z,42.42
2022-09-05T02:14:38.648Z,42.06
2022-09-05T02:15:07.552Z,42.55
2022-09-05T02:15:40.279Z,42.13
2022-09-05T02:16:09.030Z,42.22
2022-09-05T02:16:44.118Z,41.75
2022-09-05T02:17:35.054Z,41.57
2022-09-05T02:18:10.638Z,41.65
2022-09-05T02:18:52.326Z,41.81
2022-09-05T02:19:19.476Z,41.76
2022-09-05T02:19:47.524Z,41.97
2022-09-05T02:20:16.467Z,41.67
2022-09-05T02:20:52.349Z,41.90
2022-09-05T02:21:23.778Z,42.03
2022-09-05T02:21:57.501Z,41.80
2022-09-05T02:22:27.493Z,42.07
2022-09-05T02:23:00.424Z,42.33
2022-09-05T02:23:41.275Z,42.63
2022-09-05T02:24:13.985Z,42.81
2022-09-05T02:24:37.695Z,42.96
2022-09-05T02:25:32.247Z,42.80
2022-09-05T02:26:01.285Z,43.07
2022-09-05T02:26:31.509Z,42.06
2022-09-05T02:28:03.557Z,41.97
2022-09-05T02:28:06.247Z,42.19
2022-09-05T02:28:33.883Z,42.25
2022-09-05T02:29:00.223Z,42.57
2022-09-05T02:29:30.587Z,42.29
2022-09-05T02:30:08.053Z,41.88
2022-09-05T02:30:35.990Z,41.99
2022-09-05T02:31:19.613Z,41.78
2022-09-05T02:31:48.131Z,41.59
2022-09-05T02:32:15.131Z,41.55
2022-09-05T02:32:51.101Z,41.74
2022-09-05T02:33:22.231Z,41.42
2022-09-05T02:33:51.540Z,41.67
2022-09-05T02:34:34.160Z,41.38
2022-09-05T02:35:02.509Z,42.09
2022-09-05T02:35:30.865Z,41.96
2022-09-05T02:36:02.328Z,41.92
2022-09-05T02:36:33.004Z,42.20
2022-09-05T02:37:05.867Z,42.01
2022-09-05T02:40:38.998Z,41.75
2022-09-05T02:40:59.910Z,41.48
2022-09-05T02:45:01.285Z,41.08
2022-09-05T02:45:01.928Z,41.36
2022-09-05T02:45:11.899Z,41.33
2022-09-05T02:45:17.726Z,41.17
2022-09-05T02:45:18.726Z,41.34
2022-09-05T02:45:18.803Z,41.53
2022-09-05T02:45:23.929Z,41.60
2022-09-05T02:45:25.438Z,41.87
2022-09-05T02:46:01.002Z,41.14
2022-09-05T02:46:31.626Z,41.38
2022-09-05T02:47:03.284Z,41.22
2022-09-05T02:47:32.896Z,42.33
2022-09-05T02:48:15.090Z,42.23
2022-09-05T02:48:53.166Z,42.17
2022-09-05T02:50:51.723Z,42.04
2022-09-05T02:53:59.183Z,41.83
2022-09-05T02:57:24.270Z,42.30
2022-09-05T02:57:24.796Z,42.20
2022-09-05T02:57:27.377Z,42.23
2022-09-05T02:57:37.962Z,42.06
2022-09-05T02:57:42.662Z,42.26
2022-09-05T02:57:43.492Z,42.28
2022-09-05T02:57:44.455Z,41.82
2022-09-05T02:57:47.026Z,42.03
2022-09-05T02:58:08.044Z,42.48
2022-09-05T02:59:08.612Z,41.84
2022-09-05T02:59:41.643Z,41.83
2022-09-05T03:00:11.579Z,41.51
2022-09-05T03:00:40.106Z,41.68
2022-09-05T03:01:10.711Z,41.79
2022-09-05T03:01:51.073Z,41.66
2022-09-05T03:02:25.376Z,41.42
2022-09-05T03:03:17.579Z,41.91
2022-09-05T03:03:46.622Z,42.14
2022-09-05T03:04:22.277Z,42.28
2022-09-05T03:04:50.181Z,42.03
2022-09-05T03:05:22.553Z,41.49
2022-09-05T03:05:53.648Z,41.46
2022-09-05T03:06:35.073Z,41.39
2022-09-05T03:07:14.086Z,41.55
2022-09-05T03:08:02.214Z,41.23
2022-09-05T03:08:44.225Z,41.69
2022-09-05T03:09:21.807Z,41.23
2022-09-05T03:10:02.886Z,41.46
2022-09-05T03:10:55.127Z,42.10
2022-09-05T03:12:01.216Z,42.19
2022-09-05T03:13:18.865Z,42.43
2022-09-05T03:14:18.404Z,42.91
2022-09-05T03:15:22.732Z,42.80
2022-09-05T03:16:21.657Z,42.61
2022-09-05T03:17:18.057Z,42.71
2022-09-05T03:18:19.922Z,43.09
2022-09-05T03:19:28.700Z,42.41
2022-09-05T03:20:40.881Z,41.83
2022-09-05T03:21:33.865Z,42.08
2022-09-05T03:22:28.815Z,42.03
2022-09-05T03:23:34.791Z,42.78
2022-09-05T03:24:30.806Z,42.59
2022-09-05T03:25:18.669Z,42.36
2022-09-05T03:26:09.484Z,42.55
2022-09-05T03:27:09.258Z,42.23
2022-09-05T03:28:05.126Z,42.06
2022-09-05T03:29:08.009Z,41.44
2022-09-05T03:30:06.052Z,42.01
2022-09-05T03:30:49.425Z,41.90
2022-09-05T03:31:32.750Z,41.53
2022-09-05T03:32:19.998Z,41.66
2022-09-05T03:33:22.743Z,41.39
2022-09-05T03:34:11.030Z,41.59
2022-09-05T03:35:17.334Z,42.41
2022-09-05T03:36:14.553Z,42.63
2022-09-05T03:37:19.035Z,42.82
2022-09-05T03:38:21.547Z,42.96
2022-09-05T03:39:36.604Z,43.00
2022-09-05T03:40:27.753Z,42.22
2022-09-05T03:41:02.363Z,42.92
2022-09-05T03:41:41.011Z,42.94
2022-09-05T03:42:42.414Z,43.47
2022-09-05T03:43:31.303Z,43.61
2022-09-05T03:44:14.844Z,43.46
2022-09-05T03:44:48.998Z,43.61
2022-09-05T03:45:44.175Z,43.43
2022-09-05T03:46:42.127Z,43.30
2022-09-05T03:47:29.473Z,42.50
2022-09-05T03:48:28.357Z,42.76
2022-09-05T03:50:25.857Z,42.41
2022-09-05T03:57:04.605Z,42.60
2022-09-05T03:57:04.802Z,42.67
2022-09-05T03:57:08.398Z,43.25
2022-09-05T03:57:14.942Z,42.50
2022-09-05T03:57:15.048Z,43.62
2022-09-05T03:57:17.661Z,42.99
2022-09-05T03:57:23.974Z,42.79
2022-09-05T03:57:42.660Z,42.50
2022-09-05T03:58:55.843Z,42.28
2022-09-05T03:59:49.424Z,42.54
2022-09-05T04:00:21.007Z,42.52
2022-09-05T04:00:47.091Z,42.48
2022-09-05T04:02:32.627Z,42.33
2022-09-05T04:04:35.142Z,42.14
2022-09-05T04:08:10.000Z,42.22
2022-09-05T04:08:10.041Z,42.27
2022-09-05T04:08:15.212Z,41.78
2022-09-05T04:08:16.080Z,42.30
2022-09-05T04:08:16.194Z,42.90
2022-09-05T04:08:16.352Z,42.34
2022-09-05T04:08:19.682Z,41.98
2022-09-05T04:08:42.992Z,42.52
2022-09-05T04:09:22.679Z,42.22
2022-09-05T04:10:03.265Z,42.38
2022-09-05T04:10:33.155Z,42.19
2022-09-05T04:11:01.650Z,41.82
2022-09-05T04:11:35.570Z,42.21
2022-09-05T04:12:01.796Z,41.79
2022-09-05T04:12:30.312Z,41.88
2022-09-05T04:12:58.139Z,42.16
2022-09-05T04:13:26.916Z,41.79
2022-09-05T04:13:52.203Z,41.92
2022-09-05T04:14:24.552Z,42.00
2022-09-05T04:14:52.694Z,41.71
2022-09-05T04:15:23.719Z,42.15
2022-09-05T04:15:48.595Z,42.22
2022-09-05T04:16:20.303Z,42.21
2022-09-05T04:16:49.149Z,42.18
2022-09-05T04:17:23.356Z,42.10
2022-09-05T04:17:49.352Z,42.42
2022-09-05T04:18:32.885Z,41.94
2022-09-05T04:19:12.090Z,41.99
2022-09-05T04:19:38.701Z,42.52
2022-09-05T04:20:08.294Z,42.79
2022-09-05T04:20:40.714Z,42.82
2022-09-05T04:21:07.484Z,42.45
2022-09-05T04:21:33.289Z,42.63
2022-09-05T04:22:03.291Z,42.53
2022-09-05T04:22:38.818Z,42.07
2022-09-05T04:23:15.141Z,42.34
2022-09-05T04:23:48.272Z,42.40
2022-09-05T04:24:16.558Z,42.30
2022-09-05T04:24:45.719Z,42.14
2022-09-05T04:25:16.529Z,42.25
2022-09-05T04:25:51.448Z,42.21
2022-09-05T04:26:44.420Z,42.24
2022-09-05T04:27:24.393Z,42.42
2022-09-05T04:27:55.757Z,42.21
2022-09-05T04:28:33.135Z,41.97
2022-09-05T04:29:04.383Z,41.96
2022-09-05T04:29:37.509Z,42.30
2022-09-05T04:30:05.030Z,42.26
2022-09-05T04:30:49.286Z,42.13
2022-09-05T04:31:22.073Z,41.79
2022-09-05T04:32:18.242Z,42.38
2022-09-05T04:32:54.807Z,42.30
2022-09-05T04:33:33.402Z,43.04
2022-09-05T04:34:13.149Z,42.47
2022-09-05T04:34:51.084Z,42.33
2022-09-05T04:35:25.985Z,42.31
2022-09-05T04:35:58.136Z,41.90
2022-09-05T04:36:24.802Z,41.95
2022-09-05T04:36:58.175Z,42.25
2022-09-05T04:37:47.654Z,41.87
2022-09-05T04:38:16.170Z,42.25
2022-09-05T04:38:40.144Z,42.42
2022-09-05T04:39:25.320Z,42.23
2022-09-05T04:39:48.166Z,42.28
2022-09-05T04:40:34.424Z,41.79
2022-09-05T04:41:00.330Z,42.13
2022-09-05T04:41:39.062Z,42.16
2022-09-05T04:42:17.265Z,42.30
2022-09-05T04:42:40.626Z,41.96
2022-09-05T04:43:05.706Z,41.83
2022-09-05T04:43:34.889Z,42.36
2022-09-05T04:44:01.985Z,41.94
2022-09-05T04:44:32.407Z,41.87
2022-09-05T04:44:59.348Z,41.86
2022-09-05T04:45:24.521Z,42.33
2022-09-05T04:45:49.965Z,41.97
2022-09-05T04:46:19.544Z,41.77
2022-09-05T04:46:48.230Z,42.00
2022-09-05T04:47:15.965Z,41.75
2022-09-05T04:47:42.603Z,42.12
2022-09-05T04:48:11.271Z,42.09
2022-09-05T04:48:39.228Z,41.81
2022-09-05T04:49:08.886Z,41.86
2022-09-05T04:49:37.699Z,42.17
2022-09-05T04:50:07.291Z,42.12
2022-09-05T04:50:37.880Z,42.17
2022-09-05T04:51:13.002Z,41.96
2022-09-05T04:52:00.696Z,42.22
2022-09-05T04:52:48.384Z,42.40
2022-09-05T04:53:25.764Z,42.25
2022-09-05T04:54:06.503Z,42.82
2022-09-05T04:54:35.282Z,42.56
2022-09-05T04:55:03.635Z,42.36
2022-09-05T04:55:28.115Z,42.56
2022-09-05T04:55:55.331Z,43.06
2022-09-05T04:56:22.801Z,42.64
2022-09-05T04:56:50.309Z,42.74
2022-09-05T04:57:20.600Z,42.53
2022-09-05T04:57:48.180Z,42.73
2022-09-05T04:58:22.547Z,42.95
2022-09-05T05:01:22.704Z,43.36
2022-09-05T05:03:01.687Z,42.89
2022-09-05T05:06:03.997Z,42.31
2022-09-05T05:06:04.288Z,42.88
2022-09-05T05:06:08.226Z,42.93
2022-09-05T05:06:08.916Z,42.33
2022-09-05T05:06:17.756Z,42.58
2022-09-05T05:06:18.519Z,42.45
2022-09-05T05:06:19.102Z,42.85
2022-09-05T05:06:55.605Z,42.38
2022-09-05T05:07:38.841Z,42.51
2022-09-05T05:08:06.591Z,43.08
2022-09-05T05:08:39.110Z,42.80
2022-09-05T05:09:05.082Z,42.97
2022-09-05T05:09:32.565Z,42.65
2022-09-05T05:10:31.715Z,42.69
2022-09-05T05:15:41.965Z,42.69
2022-09-05T05:17:55.060Z,42.37
2022-09-05T05:17:57.094Z,42.24
2022-09-05T05:18:02.285Z,42.42
2022-09-05T05:18:07.037Z,42.01
2022-09-05T05:18:08.287Z,42.92
2022-09-05T05:18:15.970Z,42.16
2022-09-05T05:18:15.973Z,42.46
2022-09-05T05:18:16.247Z,42.28
2022-09-05T05:18:39.622Z,42.51
2022-09-05T05:19:18.738Z,42.74
2022-09-05T05:19:47.316Z,43.36
2022-09-05T05:20:42.424Z,42.50
2022-09-05T05:21:12.355Z,42.99
2022-09-05T05:21:34.464Z,43.33
2022-09-05T05:21:58.725Z,44.01
2022-09-05T05:22:20.438Z,43.20
2022-09-05T05:22:52.713Z,43.39
2022-09-05T05:23:16.862Z,43.02
2022-09-05T05:23:42.671Z,42.88
2022-09-05T05:24:11.132Z,43.25
2022-09-05T05:24:37.366Z,43.88
2022-09-05T05:25:01.464Z,43.57
2022-09-05T05:25:23.594Z,43.83
2022-09-05T05:25:49.610Z,43.66
2022-09-05T05:26:21.872Z,43.61
2022-09-05T05:26:55.869Z,43.67
2022-09-05T05:27:22.436Z,43.49
2022-09-05T05:27:49.866Z,44.07
2022-09-05T05:28:24.114Z,43.62
2022-09-05T05:28:54.548Z,43.68
2022-09-05T05:29:22.433Z,42.63
2022-09-05T05:29:50.102Z,42.41
2022-09-05T05:30:22.784Z,43.08
2022-09-05T05:30:46.650Z,42.86
2022-09-05T05:31:15.933Z,42.99
2022-09-05T05:31:46.752Z,42.78
2022-09-05T05:32:14.280Z,42.70
2022-09-05T05:32:45.854Z,42.42
2022-09-05T05:33:20.602Z,42.78
2022-09-05T05:33:47.364Z,42.67
2022-09-05T05:34:24.031Z,42.34
2022-09-05T05:34:50.704Z,42.22
2022-09-05T05:35:15.828Z,42.21
2022-09-05T05:35:48.147Z,42.60
2022-09-05T05:36:20.513Z,42.30
2022-09-05T05:36:50.507Z,42.59
2022-09-05T05:37:19.630Z,43.64
2022-09-05T05:37:46.393Z,43.89
2022-09-05T05:38:19.393Z,43.57
2022-09-05T05:38:48.850Z,43.64
2022-09-05T05:39:16.026Z,43.40
2022-09-05T05:39:41.755Z,43.43
2022-09-05T05:40:08.583Z,43.23
2022-09-05T05:40:33.983Z,43.13
2022-09-05T05:41:18.401Z,42.77
2022-09-05T05:41:43.885Z,42.46
2022-09-05T05:42:20.672Z,42.86
2022-09-05T05:42:46.129Z,42.63
2022-09-05T05:43:15.999Z,42.58
2022-09-05T05:43:42.915Z,42.53
2022-09-05T05:44:14.376Z,42.73
2022-09-05T05:44:38.318Z,42.28
2022-09-05T05:45:00.074Z,42.33
2022-09-05T05:45:27.595Z,42.51
2022-09-05T05:45:59.446Z,42.13
2022-09-05T05:46:30.836Z,42.33
2022-09-05T05:46:58.112Z,42.59
2022-09-05T05:47:31.381Z,42.87
2022-09-05T05:48:00.771Z,42.60
2022-09-05T05:48:32.584Z,42.68
2022-09-05T05:49:03.921Z,42.21
2022-09-05T05:49:35.817Z,42.43
2022-09-05T05:50:04.944Z,42.47
2022-09-05T05:50:40.834Z,42.26
2022-09-05T05:51:34.587Z,41.80
2022-09-05T05:52:37.251Z,42.79
2022-09-05T05:53:29.196Z,42.30
2022-09-05T05:54:16.843Z,42.29
2022-09-05T05:54:48.861Z,41.94
2022-09-05T05:55:52.929Z,41.64
2022-09-05T05:56:36.794Z,42.08
2022-09-05T05:57:22.990Z,41.98
2022-09-05T05:58:13.544Z,42.23
2022-09-05T05:59:07.360Z,41.55
2022-09-05T05:59:40.270Z,41.59
2022-09-05T06:00:14.738Z,41.59
2022-09-05T06:01:06.206Z,41.54
2022-09-05T06:02:10.919Z,42.10
2022-09-05T06:03:24.927Z,42.03
2022-09-05T06:04:18.787Z,41.98
2022-09-05T06:05:19.916Z,41.84
2022-09-05T06:06:04.394Z,41.93
2022-09-05T06:06:54.085Z,42.12
2022-09-05T06:07:22.652Z,42.17
2022-09-05T06:10:06.514Z,43.17
2022-09-05T06:14:50.351Z,42.71
2022-09-05T06:14:54.847Z,42.01
2022-09-05T06:14:55.002Z,42.04
2022-09-05T06:15:00.626Z,41.87
2022-09-05T06:15:01.924Z,41.97
2022-09-05T06:16:06.624Z,41.64
2022-09-05T06:17:07.643Z,41.69
2022-09-05T06:18:00.587Z,41.46
2022-09-05T06:18:54.780Z,41.42
2022-09-05T06:22:06.749Z,41.79
2022-09-05T06:22:07.465Z,42.82
2022-09-05T06:22:18.114Z,42.20
2022-09-05T06:23:17.444Z,42.94
2022-09-05T06:24:41.664Z,41.68
2022-09-05T06:25:56.961Z,41.45
2022-09-05T06:26:49.184Z,41.47
2022-09-05T06:28:04.671Z,41.28
2022-09-05T06:28:32.719Z,41.43
2022-09-05T06:29:02.936Z,41.23
2022-09-05T06:29:39.300Z,41.15
2022-09-05T06:30:08.895Z,41.02
2022-09-05T06:30:39.303Z,41.12
2022-09-05T06:31:29.870Z,41.16
2022-09-05T06:32:05.126Z,41.32
2022-09-05T06:32:56.787Z,41.14
2022-09-05T06:33:38.990Z,41.48
2022-09-05T06:34:35.104Z,41.38
2022-09-05T06:35:16.691Z,40.96
2022-09-05T06:35:50.956Z,41.15
2022-09-05T06:36:34.003Z,41.20
2022-09-05T06:37:00.877Z,41.07
2022-09-05T06:37:34.291Z,40.90
2022-09-05T06:38:11.282Z,41.19
2022-09-05T06:38:55.451Z,41.22
2022-09-05T06:39:32.124Z,41.00
2022-09-05T06:40:06.655Z,40.86
2022-09-05T06:40:35.777Z,40.72
2022-09-05T06:41:18.050Z,41.22
2022-09-05T06:41:55.137Z,41.40
2022-09-05T06:42:36.698Z,42.03
2022-09-05T06:43:13.512Z,41.85
2022-09-05T06:44:12.775Z,41.39
2022-09-05T06:44:57.715Z,41.24
2022-09-05T06:46:06.288Z,41.56
2022-09-05T06:46:54.461Z,41.18
2022-09-05T06:47:30.135Z,40.87
2022-09-05T06:48:14.461Z,41.02
2022-09-05T06:49:30.699Z,40.91
2022-09-05T06:49:46.206Z,41.20
2022-09-05T06:50:27.192Z,40.90
2022-09-05T06:51:11.504Z,41.12
2022-09-05T06:52:28.810Z,41.11
2022-09-05T06:53:28.416Z,41.16
2022-09-05T06:54:23.669Z,40.81
2022-09-05T06:55:12.028Z,40.68
2022-09-05T06:56:07.121Z,41.07
2022-09-05T06:56:47.399Z,40.90
2022-09-05T06:57:34.728Z,40.88
2022-09-05T06:58:41.241Z,40.53
2022-09-05T06:59:40.323Z,40.25
2022-09-05T07:00:22.310Z,40.27
2022-09-05T07:00:48.556Z,40.41
2022-09-05T07:01:13.287Z,40.34
2022-09-05T07:01:59.658Z,40.50
2022-09-05T07:02:59.132Z,40.42
2022-09-05T07:03:27.339Z,40.17
2022-09-05T07:04:49.442Z,40.41
2022-09-05T07:05:37.450Z,40.54
2022-09-05T07:05:55.947Z,40.92
2022-09-05T07:06:46.655Z,41.92
2022-09-05T07:07:22.949Z,41.33
2022-09-05T07:07:50.283Z,41.41
2022-09-05T07:08:35.883Z,40.65
2022-09-05T07:09:09.112Z,41.18
2022-09-05T07:09:51.972Z,40.77
2022-09-05T07:10:38.072Z,41.45
2022-09-05T07:11:15.726Z,40.57
2022-09-05T07:11:45.055Z,40.67
2022-09-05T07:12:17.483Z,40.67
2022-09-05T07:12:46.258Z,40.51
2022-09-05T07:13:16.058Z,40.71
2022-09-05T07:13:45.522Z,40.78
2022-09-05T07:14:14.935Z,40.56
2022-09-05T07:14:49.372Z,40.55
2022-09-05T07:15:14.968Z,40.59
2022-09-05T07:15:43.140Z,40.63
2022-09-05T07:16:16.476Z,40.90
2022-09-05T07:17:02.259Z,40.54
2022-09-05T07:17:41.090Z,40.85
2022-09-05T07:18:18.859Z,41.10
2022-09-05T07:18:46.153Z,40.90
2022-09-05T07:19:26.971Z,41.01
2022-09-05T07:19:56.484Z,40.60
2022-09-05T07:20:23.670Z,41.46
2022-09-05T07:21:17.104Z,41.28
2022-09-05T07:21:44.322Z,41.22
2022-09-05T07:22:46.155Z,40.67
2022-09-05T07:24:02.329Z,40.70
2022-09-05T07:24:09.254Z,40.88
2022-09-05T07:24:54.670Z,40.76
2022-09-05T07:25:20.053Z,40.74
2022-09-05T07:25:49.948Z,40.49
2022-09-05T07:26:32.970Z,40.50
2022-09-05T07:26:59.881Z,40.48
2022-09-05T07:27:34.039Z,40.56
2022-09-05T07:28:29.571Z,40.60
2022-09-05T07:28:57.540Z,40.92
2022-09-05T07:29:25.248Z,40.62
2022-09-05T07:29:53.350Z,40.69
2022-09-05T07:30:23.079Z,40.86
2022-09-05T07:30:49.321Z,40.79
2022-09-05T07:31:37.168Z,40.88
2022-09-05T07:32:02.951Z,40.37
2022-09-05T07:32:26.084Z,40.26
2022-09-05T07:32:52.247Z,40.06
2022-09-05T07:33:18.943Z,40.00
2022-09-05T07:33:44.491Z,40.17
2022-09-05T07:34:20.739Z,39.99
2022-09-05T07:34:46.752Z,40.18
2022-09-05T07:35:17.958Z,40.47
2022-09-05T07:35:42.352Z,40.15
2022-09-05T07:36:09.878Z,40.14
2022-09-05T07:36:37.540Z,39.92
2022-09-05T07:37:15.331Z,39.94
2022-09-05T07:37:41.913Z,40.69
2022-09-05T07:38:07.233Z,40.36
2022-09-05T07:38:41.879Z,40.42
2022-09-05T07:39:28.767Z,40.04
2022-09-05T07:39:57.347Z,40.09
2022-09-05T07:40:26.071Z,40.32
2022-09-05T07:40:51.895Z,39.79
2022-09-05T07:41:21.695Z,39.74
2022-09-05T07:41:51.149Z,39.75
2022-09-05T07:42:20.646Z,39.66
2022-09-05T07:42:48.741Z,39.83
2022-09-05T07:43:35.303Z,39.55
2022-09-05T07:44:02.935Z,39.76
2022-09-05T07:44:29.703Z,39.62
2022-09-05T07:44:56.478Z,39.58
2022-09-05T07:45:25.154Z,39.62
2022-09-05T07:45:55.632Z,39.58
2022-09-05T07:46:20.995Z,39.84
2022-09-05T07:46:49.091Z,40.11
2022-09-05T07:47:20.923Z,40.09
2022-09-05T07:47:48.331Z,40.05
2022-09-05T07:48:14.171Z,41.01
2022-09-05T07:48:39.471Z,40.50
2022-09-05T07:49:06.201Z,39.87
2022-09-05T07:49:31.356Z,39.46
2022-09-05T07:50:17.654Z,39.49
2022-09-05T07:55:10.998Z,39.34
2022-09-05T07:56:49.701Z,39.23
2022-09-05T07:56:50.946Z,39.49
2022-09-05T07:56:54.388Z,39.04
2022-09-05T07:56:55.335Z,39.51
2022-09-05T07:57:00.082Z,38.93
2022-09-05T07:57:07.930Z,39.07
2022-09-05T07:57:08.679Z,38.78
2022-09-05T07:57:51.910Z,39.30
2022-09-05T07:58:19.789Z,39.39
2022-09-05T07:58:49.022Z,39.14
2022-09-05T07:59:14.804Z,38.78
2022-09-05T07:59:40.302Z,38.92
2022-09-05T08:00:08.131Z,39.20
2022-09-05T08:00:53.812Z,38.85
2022-09-05T08:01:18.374Z,38.66
2022-09-05T08:01:44.960Z,38.49
2022-09-05T08:02:09.938Z,38.59
2022-09-05T08:02:34.454Z,38.66
2022-09-05T08:02:59.261Z,38.61
2022-09-05T08:03:25.748Z,38.77
2022-09-05T08:03:56.014Z,38.71
2022-09-05T08:04:25.630Z,38.60
2022-09-05T08:04:47.466Z,38.45
2022-09-05T08:05:11.232Z,38.56
2022-09-05T08:05:39.430Z,38.29
2022-09-05T08:06:05.569Z,38.51
2022-09-05T08:07:14.400Z,38.23
2022-09-05T08:07:49.987Z,37.96
2022-09-05T08:07:59.128Z,37.91
2022-09-05T08:08:25.564Z,37.59
2022-09-05T08:09:18.388Z,37.53
2022-09-05T08:10:06.137Z,37.66
2022-09-05T08:10:35.720Z,37.55
2022-09-05T08:11:25.702Z,37.52
2022-09-05T08:11:49.379Z,37.52
2022-09-05T08:12:16.299Z,37.42
2022-09-05T08:13:22.780Z,37.64
2022-09-05T08:13:46.569Z,37.84
2022-09-05T08:14:43.314Z,37.45
2022-09-05T08:15:13.943Z,37.39
2022-09-05T08:16:09.927Z,37.44
2022-09-05T08:16:25.102Z,37.34
2022-09-05T08:16:46.940Z,37.31
2022-09-05T08:17:15.080Z,37.34
2022-09-05T08:17:55.280Z,37.43
2022-09-05T08:18:21.566Z,37.30
2022-09-05T08:18:49.905Z,37.44
2022-09-05T08:19:41.708Z,37.27
2022-09-05T08:20:25.777Z,37.12
2022-09-05T08:20:53.016Z,37.10
2022-09-05T08:21:26.673Z,37.41
2022-09-05T08:21:52.461Z,37.42
2022-09-05T08:22:21.510Z,37.14
2022-09-05T08:22:52.482Z,37.60
2022-09-05T08:23:29.694Z,37.30